Time;durP1;ratioP1;P1;durP2;ratioP2;P2;SDS_P1;SDS_P2;PMS_P1;PMS_P2;Temp;Humidity;BMP_temperature;BMP_pressure;BME280_temperature;BME280_humidity;BME280_pressure;Samples;Min_cycle;Max_cycle;Signal;HPM_P1;HPM_P2
2022/01/20 00:02:01;;;;;;;12.02;6.25;;;;;;;;;;4977743;28;20115;-74
2022/01/20 00:04:41;;;;;;;11.55;6.60;;;;;;;;;;4977565;28;20038;-73
2022/01/20 00:25:54;;;;;;;17.55;8.75;;;;;;;;;;5016375;28;20037;-74
2022/01/20 00:26:42;;;;;;;16.30;8.38;;;;;;;;;;5016071;28;20022;-73
2022/01/20 00:29:19;;;;;;;17.42;9.07;;;;;;;;;;5016170;28;20033;-73
2022/01/20 00:32:03;;;;;;;17.95;9.95;;;;;;;;;;5016025;28;20030;-74
2022/01/20 00:35:06;;;;;;;19.05;10.23;;;;;;;;;;5015918;28;20050;-74
2022/01/20 00:37:17;;;;;;;18.63;10.10;;;;;;;;;;5014563;28;20109;-74
2022/01/20 00:39:45;;;;;;;19.48;10.75;;;;;;;;;;4999462;28;20037;-74
2022/01/20 00:42:12;;;;;;;22.08;10.45;;;;;;;;;;5015862;28;20033;-74
2022/01/20 00:44:39;;;;;;;22.02;11.23;;;;;;;;;;4999445;28;20481;-75
2022/01/20 00:47:07;;;;;;;21.70;11.98;;;;;;;;;;5015767;28;20462;-75
2022/01/20 00:49:35;;;;;;;21.17;11.27;;;;;;;;;;5015803;28;20124;-76
2022/01/20 00:52:03;;;;;;;22.73;12.38;;;;;;;;;;5016652;28;20033;-75
2022/01/20 00:54:31;;;;;;;24.17;11.48;;;;;;;;;;5017599;28;20026;-75
2022/01/20 00:56:59;;;;;;;22.95;11.80;;;;;;;;;;5017734;28;20029;-75
2022/01/20 00:59:28;;;;;;;21.45;12.20;;;;;;;;;;5016408;28;20033;-74
2022/01/20 01:01:59;;;;;;;25.48;13.00;;;;;;;;;;5017315;28;20060;-75
2022/01/20 01:04:27;;;;;;;23.33;12.43;;;;;;;;;;5016211;28;20038;-74
2022/01/20 01:09:39;;;;;;;19.42;11.35;;;;;;;;;;5016475;28;20048;-74
2022/01/20 01:12:11;;;;;;;19.38;10.77;;;;;;;;;;5016142;28;20029;-75
2022/01/20 01:14:44;;;;;;;18.05;10.43;;;;;;;;;;5016060;28;20018;-74
2022/01/20 01:22:36;;;;;;;23.92;14.45;;;;;;;;;;4975949;28;20305;-75
2022/01/20 01:25:04;;;;;;;24.85;14.10;;;;;;;;;;4975969;28;20049;-74
2022/01/20 01:27:37;;;;;;;25.73;13.48;;;;;;;;;;4975960;28;20464;-75
2022/01/20 01:30:20;;;;;;;26.15;14.70;;;;;;;;;;4975968;28;20323;-74
2022/01/20 01:32:53;;;;;;;27.85;14.30;;;;;;;;;;4975845;28;20059;-75
2022/01/20 01:35:21;;;;;;;47.90;25.20;;;;;;;;;;4975620;28;20105;-74
2022/01/20 01:40:25;;;;;;;89.45;44.70;;;;;;;;;;4975825;28;20407;-74
2022/01/20 01:42:53;;;;;;;93.10;47.38;;;;;;;;;;4975692;28;20026;-74
2022/01/20 01:45:27;;;;;;;71.50;38.45;;;;;;;;;;4975611;28;20046;-75
2022/01/20 01:47:56;;;;;;;52.75;29.92;;;;;;;;;;4975674;28;20043;-75
2022/01/20 01:50:24;;;;;;;54.70;30.08;;;;;;;;;;4975601;28;20042;-77
2022/01/20 01:52:53;;;;;;;36.47;19.92;;;;;;;;;;4975713;28;20145;-74
2022/01/20 01:55:21;;;;;;;43.35;22.63;;;;;;;;;;4975660;28;20031;-78
2022/01/20 01:57:49;;;;;;;33.88;19.67;;;;;;;;;;4976213;28;20039;-79
2022/01/20 02:00:17;;;;;;;52.97;29.30;;;;;;;;;;5014273;28;20033;-78
2022/01/20 02:02:45;;;;;;;83.82;47.35;;;;;;;;;;5015222;28;20029;-78
2022/01/20 02:05:14;;;;;;;226.13;114.13;;;;;;;;;;5015391;28;20026;-77
2022/01/20 02:18:52;;;;;;;173.70;84.32;;;;;;;;;;5016744;28;20037;-78
2022/01/20 02:21:20;;;;;;;189.57;97.32;;;;;;;;;;5015067;28;20022;-78
2022/01/20 02:23:49;;;;;;;121.20;62.08;;;;;;;;;;5015252;28;20401;-80
2022/01/20 02:26:17;;;;;;;405.98;182.45;;;;;;;;;;5016100;28;20014;-78
2022/01/20 02:28:46;;;;;;;684.17;329.50;;;;;;;;;;5012850;28;20029;-77
2022/01/20 02:31:14;;;;;;;916.05;453.17;;;;;;;;;;5015618;28;20033;-74
2022/01/20 02:33:42;;;;;;;938.90;485.63;;;;;;;;;;5031460;28;20156;-72
2022/01/20 02:36:15;;;;;;;716.97;368.70;;;;;;;;;;5024414;28;20041;-79
2022/01/20 02:46:43;;;;;;;65.97;37.30;;;;;;;;;;5032478;28;20041;-74
2022/01/20 02:49:15;;;;;;;44.35;25.73;;;;;;;;;;5015818;28;20106;-76
2022/01/20 02:51:56;;;;;;;44.50;25.23;;;;;;;;;;5031276;28;20043;-77
2022/01/20 02:54:24;;;;;;;49.75;24.60;;;;;;;;;;5030729;28;20382;-76
2022/01/20 02:56:52;;;;;;;42.92;24.00;;;;;;;;;;5035764;28;20053;-79
2022/01/20 02:59:19;;;;;;;44.58;22.35;;;;;;;;;;5035407;28;20029;-79
2022/01/20 03:01:47;;;;;;;58.83;25.73;;;;;;;;;;5035728;28;20022;-75
2022/01/20 03:04:15;;;;;;;82.97;37.38;;;;;;;;;;5051379;28;20033;-78
2022/01/20 03:06:43;;;;;;;74.18;35.08;;;;;;;;;;5035963;28;20088;-76
2022/01/20 03:09:11;;;;;;;67.07;33.08;;;;;;;;;;5035874;28;20034;-79
2022/01/20 03:11:38;;;;;;;63.83;31.65;;;;;;;;;;5036198;28;20096;-78
2022/01/20 03:14:06;;;;;;;72.43;37.33;;;;;;;;;;5036026;28;20430;-76
2022/01/20 03:16:33;;;;;;;85.03;44.03;;;;;;;;;;5051358;28;20480;-80
2022/01/20 03:19:01;;;;;;;319.58;177.90;;;;;;;;;;5036037;28;20088;-80
2022/01/20 03:21:30;;;;;;;129.90;77.82;;;;;;;;;;5051848;28;20480;-79
2022/01/20 03:23:57;;;;;;;185.13;108.07;;;;;;;;;;5036741;28;20030;-80
2022/01/20 03:26:25;;;;;;;82.65;48.67;;;;;;;;;;5070308;28;20039;-78
2022/01/20 03:28:53;;;;;;;70.85;38.03;;;;;;;;;;5057487;28;20014;-77
2022/01/20 03:31:20;;;;;;;59.53;33.58;;;;;;;;;;5073582;28;20022;-78
2022/01/20 03:33:48;;;;;;;51.15;30.00;;;;;;;;;;5060369;28;20069;-75
2022/01/20 03:36:16;;;;;;;98.63;49.95;;;;;;;;;;5076902;28;20117;-79
2022/01/20 03:38:44;;;;;;;71.40;37.70;;;;;;;;;;5059726;28;20033;-80
2022/01/20 03:41:11;;;;;;;70.85;39.55;;;;;;;;;;5059426;28;20025;-79
2022/01/20 03:43:39;;;;;;;75.90;38.90;;;;;;;;;;5051678;28;20108;-82
2022/01/20 03:46:12;;;;;;;74.43;38.67;;;;;;;;;;5039980;28;20418;-81
2022/01/20 03:48:51;;;;;;;78.45;43.30;;;;;;;;;;5040146;28;20317;-81
2022/01/20 03:51:23;;;;;;;188.18;101.28;;;;;;;;;;5055253;28;20032;-75
2022/01/20 03:53:52;;;;;;;249.05;124.20;;;;;;;;;;5039859;28;20026;-73
2022/01/20 03:56:20;;;;;;;199.23;105.22;;;;;;;;;;5039191;28;20121;-75
2022/01/20 03:58:48;;;;;;;216.13;117.78;;;;;;;;;;5039032;28;20096;-75
2022/01/20 04:01:18;;;;;;;312.17;178.75;;;;;;;;;;5055108;28;20150;-79
2022/01/20 04:03:46;;;;;;;91.22;52.40;;;;;;;;;;5039418;28;20048;-79
2022/01/20 04:06:13;;;;;;;65.55;36.60;;;;;;;;;;5037545;28;20034;-78
2022/01/20 04:08:42;;;;;;;60.83;31.75;;;;;;;;;;5037130;28;20090;-80
2022/01/20 04:11:14;;;;;;;58.08;33.50;;;;;;;;;;5036362;28;20109;-78
2022/01/20 04:13:42;;;;;;;57.55;34.58;;;;;;;;;;5036601;28;20050;-82
2022/01/20 04:16:14;;;;;;;58.20;35.00;;;;;;;;;;5035769;28;20191;-76
2022/01/20 04:18:52;;;;;;;89.63;51.28;;;;;;;;;;5027216;28;20021;-78
2022/01/20 04:21:21;;;;;;;84.78;49.92;;;;;;;;;;5026403;28;20068;-80
2022/01/20 04:23:49;;;;;;;103.80;57.67;;;;;;;;;;5024636;28;20033;-79
2022/01/20 04:26:19;;;;;;;106.07;57.03;;;;;;;;;;5016890;28;20038;-74
2022/01/20 04:28:46;;;;;;;110.88;65.10;;;;;;;;;;5023842;28;20497;-76
2022/01/20 04:31:14;;;;;;;143.95;76.00;;;;;;;;;;5021620;28;20129;-69
2022/01/20 04:33:41;;;;;;;364.85;159.90;;;;;;;;;;5020053;28;20046;-73
2022/01/20 04:36:09;;;;;;;381.42;152.35;;;;;;;;;;5018462;28;20140;-75
2022/01/20 04:38:37;;;;;;;208.55;91.40;;;;;;;;;;5007527;28;20044;-73
2022/01/20 04:41:05;;;;;;;144.30;68.88;;;;;;;;;;5005550;28;20442;-74
2022/01/20 04:43:32;;;;;;;107.40;55.17;;;;;;;;;;4995674;28;20026;-72
2022/01/20 04:46:11;;;;;;;85.32;45.22;;;;;;;;;;4997266;28;20027;-70
2022/01/20 04:49:04;;;;;;;126.45;67.45;;;;;;;;;;4996215;28;20077;-77
2022/01/20 04:57:17;;;;;;;122.88;66.65;;;;;;;;;;4998412;28;20316;-80
2022/01/20 04:59:45;;;;;;;145.68;84.72;;;;;;;;;;5004664;28;20053;-81
2022/01/20 05:02:13;;;;;;;196.15;115.60;;;;;;;;;;4998019;28;20026;-75
2022/01/20 05:04:43;;;;;;;89.15;42.22;;;;;;;;;;4997874;28;20030;-82
2022/01/20 05:07:18;;;;;;;83.82;39.45;;;;;;;;;;4998075;28;20383;-84
2022/01/20 05:09:46;;;;;;;84.78;43.25;;;;;;;;;;4997682;28;20037;-81
2022/01/20 05:12:17;;;;;;;70.40;33.35;;;;;;;;;;5009966;28;20026;-81
2022/01/20 05:14:45;;;;;;;76.95;39.55;;;;;;;;;;5017624;28;20105;-79
2022/01/20 05:17:13;;;;;;;68.25;34.95;;;;;;;;;;5032193;28;20022;-80
2022/01/20 05:19:40;;;;;;;64.38;30.45;;;;;;;;;;5031939;28;20378;-80
2022/01/20 05:22:08;;;;;;;64.40;29.02;;;;;;;;;;5032021;28;20026;-78
2022/01/20 05:24:36;;;;;;;63.90;27.88;;;;;;;;;;5032422;28;20708;-78
2022/01/20 05:27:04;;;;;;;74.43;33.15;;;;;;;;;;5006111;28;20095;-80
2022/01/20 05:29:31;;;;;;;92.78;42.05;;;;;;;;;;5010570;28;20022;-82
2022/01/20 05:31:59;;;;;;;92.72;40.13;;;;;;;;;;5036162;28;20125;-79
2022/01/20 05:34:25;;;;;;;95.93;40.55;;;;;;;;;;5016138;28;20073;-83
2022/01/20 05:36:53;;;;;;;75.78;32.58;;;;;;;;;;5033495;28;20018;-84
2022/01/20 05:39:20;;;;;;;66.15;31.05;;;;;;;;;;5005816;28;20046;-82
2022/01/20 05:41:48;;;;;;;69.47;33.83;;;;;;;;;;4996591;28;20434;-79
2022/01/20 05:44:15;;;;;;;61.90;30.30;;;;;;;;;;4997627;28;20030;-82
2022/01/20 05:46:48;;;;;;;96.50;51.30;;;;;;;;;;5028607;28;20030;-81
2022/01/20 05:49:21;;;;;;;88.10;43.05;;;;;;;;;;5016941;28;20112;-80
2022/01/20 05:51:49;;;;;;;87.88;43.63;;;;;;;;;;5016665;28;20025;-79
2022/01/20 05:54:17;;;;;;;157.38;75.13;;;;;;;;;;5016792;28;20029;-77
2022/01/20 05:56:45;;;;;;;112.95;56.35;;;;;;;;;;5031887;28;20032;-80
2022/01/20 05:59:12;;;;;;;98.13;49.97;;;;;;;;;;5016366;28;20018;-81
2022/01/20 06:01:41;;;;;;;85.07;43.28;;;;;;;;;;5016192;28;20018;-78
2022/01/20 06:04:09;;;;;;;78.82;44.00;;;;;;;;;;5017841;28;20033;-79
2022/01/20 06:06:39;;;;;;;92.13;51.70;;;;;;;;;;5031092;28;20421;-77
2022/01/20 06:09:08;;;;;;;69.38;37.40;;;;;;;;;;5031553;28;20033;-77
2022/01/20 06:11:36;;;;;;;79.38;37.78;;;;;;;;;;5013361;28;20026;-80
2022/01/20 06:14:04;;;;;;;109.22;51.40;;;;;;;;;;5015988;28;20419;-79
2022/01/20 06:16:32;;;;;;;108.20;54.95;;;;;;;;;;5016140;28;20026;-80
2022/01/20 06:19:02;;;;;;;131.63;62.55;;;;;;;;;;5013402;28;20022;-80
2022/01/20 06:21:29;;;;;;;140.32;68.32;;;;;;;;;;5006251;28;20035;-81
2022/01/20 06:23:57;;;;;;;129.68;64.40;;;;;;;;;;5016217;28;20438;-80
2022/01/20 06:26:25;;;;;;;96.93;53.20;;;;;;;;;;5016154;28;20026;-79
2022/01/20 06:28:52;;;;;;;81.50;46.92;;;;;;;;;;5016119;28;20022;-78
2022/01/20 06:31:20;;;;;;;81.15;42.25;;;;;;;;;;5015123;28;20049;-81
2022/01/20 06:33:47;;;;;;;85.75;41.90;;;;;;;;;;5015573;28;20073;-80
2022/01/20 06:36:15;;;;;;;111.28;57.35;;;;;;;;;;5015968;28;20056;-76
2022/01/20 06:38:43;;;;;;;70.25;37.42;;;;;;;;;;5015806;28;20034;-81
2022/01/20 06:41:10;;;;;;;60.13;34.03;;;;;;;;;;5014877;28;20096;-80
2022/01/20 06:43:38;;;;;;;66.85;37.50;;;;;;;;;;5014874;28;20033;-79
2022/01/20 06:46:06;;;;;;;50.28;29.33;;;;;;;;;;5016213;28;20038;-80
2022/01/20 06:48:33;;;;;;;42.85;25.58;;;;;;;;;;5015465;28;20046;-77
2022/01/20 06:51:00;;;;;;;44.58;26.63;;;;;;;;;;5014251;28;20423;-80
2022/01/20 06:53:28;;;;;;;47.40;28.17;;;;;;;;;;5015551;28;20030;-77
2022/01/20 06:55:56;;;;;;;49.20;27.73;;;;;;;;;;5015430;28;20470;-80
2022/01/20 06:58:23;;;;;;;48.80;28.25;;;;;;;;;;5006918;28;20030;-79
2022/01/20 07:00:54;;;;;;;62.28;35.55;;;;;;;;;;5003298;28;20084;-79
2022/01/20 07:03:22;;;;;;;60.10;35.03;;;;;;;;;;5011278;28;20060;-79
2022/01/20 07:05:49;;;;;;;77.95;48.40;;;;;;;;;;5014304;28;20450;-79
2022/01/20 07:08:18;;;;;;;119.70;73.40;;;;;;;;;;5016863;28;20033;-79
2022/01/20 07:10:45;;;;;;;103.22;65.15;;;;;;;;;;5018650;28;20057;-78
2022/01/20 07:13:13;;;;;;;133.27;98.18;;;;;;;;;;5018834;28;20022;-79
2022/01/20 07:15:40;;;;;;;65.72;44.53;;;;;;;;;;5018329;28;20101;-78
2022/01/20 07:18:07;;;;;;;56.58;36.15;;;;;;;;;;5000357;28;20026;-79
2022/01/20 07:20:38;;;;;;;62.60;36.72;;;;;;;;;;4997816;28;20093;-79
2022/01/20 07:23:09;;;;;;;71.32;44.38;;;;;;;;;;4997775;28;20030;-78
2022/01/20 07:25:36;;;;;;;60.28;34.60;;;;;;;;;;4999179;28;20101;-78
2022/01/20 07:28:04;;;;;;;55.05;29.33;;;;;;;;;;5008583;28;20026;-78
2022/01/20 07:30:31;;;;;;;57.50;33.65;;;;;;;;;;4997394;28;20061;-76
2022/01/20 07:33:03;;;;;;;57.42;34.65;;;;;;;;;;4997538;28;20030;-74
2022/01/20 07:35:29;;;;;;;58.70;34.80;;;;;;;;;;4997739;28;20447;-73
2022/01/20 07:37:56;;;;;;;61.72;34.33;;;;;;;;;;4998549;28;20026;-72
2022/01/20 07:40:24;;;;;;;75.10;45.28;;;;;;;;;;4997596;28;20077;-73
2022/01/20 07:42:52;;;;;;;97.45;57.05;;;;;;;;;;4998637;28;20026;-74
2022/01/20 07:45:21;;;;;;;122.75;73.43;;;;;;;;;;4998330;28;20077;-75
2022/01/20 07:47:49;;;;;;;65.55;38.50;;;;;;;;;;4998575;28;20323;-75
2022/01/20 07:50:16;;;;;;;87.60;47.63;;;;;;;;;;4998519;28;20034;-76
2022/01/20 07:52:44;;;;;;;88.75;44.70;;;;;;;;;;4997476;28;20084;-75
2022/01/20 07:55:11;;;;;;;84.63;44.65;;;;;;;;;;4997787;28;20056;-75
2022/01/20 07:57:39;;;;;;;84.10;43.97;;;;;;;;;;4997018;28;20374;-73
2022/01/20 08:00:07;;;;;;;95.18;46.58;;;;;;;;;;4998910;28;20033;-75
2022/01/20 08:02:34;;;;;;;88.78;51.50;;;;;;;;;;4998185;28;20049;-76
2022/01/20 08:05:04;;;;;;;79.40;46.75;;;;;;;;;;4997990;28;20026;-73
2022/01/20 08:07:32;;;;;;;73.05;44.63;;;;;;;;;;4999232;28;20327;-75
2022/01/20 08:09:59;;;;;;;66.18;42.80;;;;;;;;;;4997008;28;20030;-73
2022/01/20 08:12:28;;;;;;;49.22;28.92;;;;;;;;;;4997116;28;20018;-73
2022/01/20 08:14:58;;;;;;;95.18;58.67;;;;;;;;;;5009321;28;20077;-74
2022/01/20 08:17:25;;;;;;;67.97;38.58;;;;;;;;;;5017915;28;20025;-75
2022/01/20 08:19:53;;;;;;;69.40;39.55;;;;;;;;;;5017354;28;20026;-76
2022/01/20 08:22:20;;;;;;;66.43;36.78;;;;;;;;;;5017779;28;20022;-76
2022/01/20 08:24:52;;;;;;;59.10;34.28;;;;;;;;;;5016474;28;20038;-76
2022/01/20 08:27:20;;;;;;;61.92;35.03;;;;;;;;;;5014679;28;20105;-76
2022/01/20 08:29:48;;;;;;;50.75;29.27;;;;;;;;;;5033300;28;20033;-77
2022/01/20 08:32:15;;;;;;;45.90;28.10;;;;;;;;;;5015609;28;20378;-76
2022/01/20 08:34:42;;;;;;;47.63;28.27;;;;;;;;;;5013926;28;20060;-75
2022/01/20 08:37:09;;;;;;;41.75;23.88;;;;;;;;;;4998883;28;20023;-74
2022/01/20 08:39:39;;;;;;;34.53;21.15;;;;;;;;;;4998531;28;20030;-75
2022/01/20 08:42:07;;;;;;;40.30;24.55;;;;;;;;;;5011405;28;20026;-75
2022/01/20 08:44:35;;;;;;;38.67;23.30;;;;;;;;;;5000560;28;20026;-77
2022/01/20 08:47:04;;;;;;;36.30;23.23;;;;;;;;;;5033053;28;20371;-77
2022/01/20 08:49:31;;;;;;;36.20;22.67;;;;;;;;;;5032869;28;20060;-73
2022/01/20 08:52:00;;;;;;;36.45;21.30;;;;;;;;;;5032628;28;20414;-75
2022/01/20 08:54:27;;;;;;;32.25;19.42;;;;;;;;;;5017481;28;20033;-75
2022/01/20 08:56:55;;;;;;;32.17;19.95;;;;;;;;;;5018494;28;20030;-71
2022/01/20 08:59:22;;;;;;;34.40;21.20;;;;;;;;;;5017244;28;20021;-72
2022/01/20 09:01:50;;;;;;;34.85;19.65;;;;;;;;;;5032890;28;20033;-76
2022/01/20 09:04:18;;;;;;;38.17;22.02;;;;;;;;;;5017096;28;20439;-73
2022/01/20 09:06:47;;;;;;;72.68;36.38;;;;;;;;;;5016768;28;20053;-77
2022/01/20 09:09:16;;;;;;;98.10;48.80;;;;;;;;;;5011277;28;20026;-75
2022/01/20 09:12:02;;;;;;;82.68;43.78;;;;;;;;;;5011071;28;20283;-72
2022/01/20 09:17:16;;;;;;;192.57;92.57;;;;;;;;;;5016904;28;20083;-73
2022/01/20 09:19:43;;;;;;;77.68;40.92;;;;;;;;;;5015935;28;20053;-73
2022/01/20 09:22:12;;;;;;;47.78;27.35;;;;;;;;;;5016668;28;20025;-72
2022/01/20 09:24:39;;;;;;;57.58;30.58;;;;;;;;;;5014311;28;20517;-72
2022/01/20 09:27:10;;;;;;;52.33;29.88;;;;;;;;;;5011189;28;20418;-73
2022/01/20 09:29:38;;;;;;;56.15;31.15;;;;;;;;;;5015769;28;20403;-75
2022/01/20 09:32:07;;;;;;;68.18;38.08;;;;;;;;;;5029775;28;20057;-72
2022/01/20 09:34:34;;;;;;;66.70;38.13;;;;;;;;;;5015454;28;20042;-74
2022/01/20 09:37:01;;;;;;;55.83;33.20;;;;;;;;;;5016034;28;20050;-74
2022/01/20 09:39:29;;;;;;;54.13;31.70;;;;;;;;;;5014830;28;20022;-71
2022/01/20 09:41:58;;;;;;;53.17;32.30;;;;;;;;;;5015467;28;20022;-72
2022/01/20 09:44:26;;;;;;;50.30;29.83;;;;;;;;;;5012525;28;20028;-73
2022/01/20 09:49:41;;;;;;;49.97;28.90;;;;;;;;;;5006097;28;20084;-74
2022/01/20 09:52:09;;;;;;;47.03;28.20;;;;;;;;;;5004403;28;20042;-75
2022/01/20 09:54:37;;;;;;;45.78;28.55;;;;;;;;;;5005683;28;20033;-73
2022/01/20 09:57:05;;;;;;;47.45;27.33;;;;;;;;;;5006459;28;20026;-71
2022/01/20 09:59:33;;;;;;;43.45;27.83;;;;;;;;;;5026512;28;20124;-75
2022/01/20 10:02:00;;;;;;;64.78;37.25;;;;;;;;;;5027066;28;20034;-72
2022/01/20 10:04:31;;;;;;;68.50;34.75;;;;;;;;;;5028112;28;20076;-74
2022/01/20 10:07:04;;;;;;;70.47;37.63;;;;;;;;;;5012253;28;20032;-75
2022/01/20 10:09:39;;;;;;;60.03;33.15;;;;;;;;;;5015772;28;20029;-73
2022/01/20 10:12:07;;;;;;;53.90;32.92;;;;;;;;;;5015235;28;20030;-72
2022/01/20 10:14:45;;;;;;;43.55;25.13;;;;;;;;;;5015708;28;20026;-72
2022/01/20 10:17:20;;;;;;;43.75;23.70;;;;;;;;;;5029669;28;20076;-73
2022/01/20 10:20:00;;;;;;;39.80;25.08;;;;;;;;;;5030793;28;20288;-72
2022/01/20 10:22:29;;;;;;;42.35;23.08;;;;;;;;;;5015995;28;20022;-70
2022/01/20 10:25:10;;;;;;;51.00;29.38;;;;;;;;;;5012491;28;20088;-71
2022/01/20 10:27:48;;;;;;;96.57;45.40;;;;;;;;;;4999217;28;20030;-70
2022/01/20 10:30:16;;;;;;;71.60;41.90;;;;;;;;;;4996225;28;20313;-72
2022/01/20 10:32:49;;;;;;;100.63;48.10;;;;;;;;;;5000817;28;20023;-74
2022/01/20 10:35:17;;;;;;;87.65;46.47;;;;;;;;;;4995163;28;20200;-74
2022/01/20 10:38:02;;;;;;;99.57;52.00;;;;;;;;;;4995221;28;20109;-74
2022/01/20 10:40:29;;;;;;;77.65;39.55;;;;;;;;;;4996347;28;20023;-78
2022/01/20 10:42:57;;;;;;;57.15;32.60;;;;;;;;;;4998851;28;20064;-76
2022/01/20 10:45:28;;;;;;;47.80;28.70;;;;;;;;;;5000670;28;20627;-77
2022/01/20 10:47:56;;;;;;;63.83;35.00;;;;;;;;;;4999180;28;20026;-73
2022/01/20 10:50:30;;;;;;;64.15;35.78;;;;;;;;;;5000204;28;20076;-76
2022/01/20 10:52:58;;;;;;;72.97;42.65;;;;;;;;;;4999361;28;20327;-72
2022/01/20 10:55:26;;;;;;;83.20;45.90;;;;;;;;;;5000049;28;20029;-73
2022/01/20 10:57:55;;;;;;;73.00;40.30;;;;;;;;;;5000602;28;20031;-76
2022/01/20 11:00:25;;;;;;;78.82;41.60;;;;;;;;;;5000222;28;20030;-78
2022/01/20 11:03:01;;;;;;;78.95;40.20;;;;;;;;;;5000142;28;20031;-74
2022/01/20 11:05:30;;;;;;;103.28;54.50;;;;;;;;;;4999076;28;20039;-76
2022/01/20 11:07:57;;;;;;;89.97;49.08;;;;;;;;;;4999942;28;20438;-75
2022/01/20 11:10:25;;;;;;;92.53;49.15;;;;;;;;;;4999896;28;20448;-75
2022/01/20 11:12:53;;;;;;;108.55;60.63;;;;;;;;;;4999918;28;20077;-77
2022/01/20 11:15:22;;;;;;;94.13;50.25;;;;;;;;;;4998842;28;20025;-76
2022/01/20 11:17:57;;;;;;;113.53;58.38;;;;;;;;;;4998692;28;20110;-75
2022/01/20 11:20:28;;;;;;;88.47;47.90;;;;;;;;;;4999747;28;20018;-75
2022/01/20 11:23:05;;;;;;;114.90;60.03;;;;;;;;;;4999658;28;20030;-74
2022/01/20 11:25:37;;;;;;;169.57;83.90;;;;;;;;;;4999634;28;20073;-74
2022/01/20 11:28:17;;;;;;;132.48;66.72;;;;;;;;;;4998616;28;20053;-72
2022/01/20 11:31:05;;;;;;;162.95;72.60;;;;;;;;;;4998347;28;20034;-75
2022/01/20 11:33:37;;;;;;;124.00;61.15;;;;;;;;;;4999539;28;20447;-74
2022/01/20 11:36:04;;;;;;;99.75;49.50;;;;;;;;;;4999309;28;20328;-77
2022/01/20 11:38:47;;;;;;;77.80;39.70;;;;;;;;;;4999282;28;20022;-73
2022/01/20 11:41:21;;;;;;;123.32;59.65;;;;;;;;;;4999277;28;20030;-79
2022/01/20 11:43:51;;;;;;;107.82;59.35;;;;;;;;;;4999346;28;20024;-75
2022/01/20 11:46:20;;;;;;;200.63;101.30;;;;;;;;;;4998127;28;20022;-76
2022/01/20 11:49:00;;;;;;;139.45;70.70;;;;;;;;;;4999150;28;20022;-76
2022/01/20 11:51:30;;;;;;;162.45;76.97;;;;;;;;;;4997894;28;20037;-74
2022/01/20 11:54:03;;;;;;;134.38;66.68;;;;;;;;;;4998254;28;20049;-74
2022/01/20 11:56:38;;;;;;;200.43;101.18;;;;;;;;;;4999300;28;20030;-73
2022/01/20 11:59:06;;;;;;;142.48;72.72;;;;;;;;;;4999078;28;20027;-75
2022/01/20 12:01:48;;;;;;;207.23;99.03;;;;;;;;;;4999224;28;20054;-76
2022/01/20 12:04:16;;;;;;;151.32;74.65;;;;;;;;;;4999007;28;20027;-76
2022/01/20 12:06:47;;;;;;;97.18;51.63;;;;;;;;;;4999047;28;20442;-74
2022/01/20 12:09:17;;;;;;;93.40;49.50;;;;;;;;;;4998902;28;20026;-77
2022/01/20 12:11:45;;;;;;;109.07;58.08;;;;;;;;;;4998724;28;20105;-76
2022/01/20 12:14:14;;;;;;;112.93;58.95;;;;;;;;;;4998852;28;20027;-76
2022/01/20 12:16:42;;;;;;;128.07;66.07;;;;;;;;;;4997820;28;20105;-77
2022/01/20 12:19:10;;;;;;;113.22;58.75;;;;;;;;;;4999351;28;20030;-80
2022/01/20 12:21:39;;;;;;;129.32;63.75;;;;;;;;;;4999680;28;20076;-81
2022/01/20 12:24:07;;;;;;;149.68;73.65;;;;;;;;;;5000463;28;20026;-82
2022/01/20 12:26:35;;;;;;;147.93;77.85;;;;;;;;;;5000951;28;20076;-82
2022/01/20 12:29:07;;;;;;;149.68;74.93;;;;;;;;;;5000858;28;20034;-82
2022/01/20 12:31:56;;;;;;;150.43;72.70;;;;;;;;;;4999435;28;20022;-80
2022/01/20 12:34:23;;;;;;;191.60;89.78;;;;;;;;;;4997939;28;20076;-80
2022/01/20 12:36:52;;;;;;;203.10;99.53;;;;;;;;;;5000189;28;20152;-81
2022/01/20 12:39:38;;;;;;;224.65;113.13;;;;;;;;;;4997801;28;20062;-82
2022/01/20 12:42:17;;;;;;;199.27;101.60;;;;;;;;;;4997714;28;20113;-81
2022/01/20 12:44:50;;;;;;;241.13;121.72;;;;;;;;;;4998255;28;20022;-81
2022/01/20 12:47:18;;;;;;;168.57;80.35;;;;;;;;;;4998313;28;20035;-79
2022/01/20 12:49:54;;;;;;;163.32;74.47;;;;;;;;;;4998416;28;20088;-79
2022/01/20 12:52:22;;;;;;;127.22;56.03;;;;;;;;;;4997643;28;20023;-79
2022/01/20 12:54:50;;;;;;;139.88;63.25;;;;;;;;;;4998257;28;20105;-80
2022/01/20 12:57:20;;;;;;;132.75;59.65;;;;;;;;;;4997996;28;20064;-81
2022/01/20 12:59:48;;;;;;;138.73;65.10;;;;;;;;;;4998340;28;20026;-80
2022/01/20 13:02:27;;;;;;;133.88;61.55;;;;;;;;;;4996977;28;20069;-79
2022/01/20 13:05:00;;;;;;;168.40;74.10;;;;;;;;;;4996181;28;20031;-82
2022/01/20 13:07:29;;;;;;;141.13;59.65;;;;;;;;;;4998121;28;20018;-79
2022/01/20 13:10:03;;;;;;;194.70;83.22;;;;;;;;;;4997988;28;20022;-81
2022/01/20 13:12:41;;;;;;;168.13;77.22;;;;;;;;;;4996667;28;20032;-81
2022/01/20 13:15:24;;;;;;;135.43;63.53;;;;;;;;;;4997658;28;20022;-80
2022/01/20 13:18:13;;;;;;;146.35;65.53;;;;;;;;;;4976283;28;20026;-81
2022/01/20 13:20:43;;;;;;;150.05;65.40;;;;;;;;;;4976248;28;20055;-81
2022/01/20 13:26:07;;;;;;;132.32;62.33;;;;;;;;;;5134822;27;20379;-80
2022/01/20 13:28:35;;;;;;;129.18;57.63;;;;;;;;;;5134794;28;20023;-83
2022/01/20 13:31:22;;;;;;;126.50;60.75;;;;;;;;;;5133792;28;20076;-82
2022/01/20 13:33:50;;;;;;;122.95;53.92;;;;;;;;;;5133758;28;20027;-81
2022/01/20 13:36:20;;;;;;;136.88;58.33;;;;;;;;;;5133620;28;20031;-81
2022/01/20 13:38:59;;;;;;;183.40;72.43;;;;;;;;;;5134459;27;20016;-81
2022/01/20 13:41:28;;;;;;;221.88;89.80;;;;;;;;;;5134405;27;20019;-81
2022/01/20 13:46:48;;;;;;;183.90;72.50;;;;;;;;;;5134076;28;20026;-78
2022/01/20 13:49:21;;;;;;;214.70;84.30;;;;;;;;;;5133932;27;20023;-77
2022/01/20 13:52:07;;;;;;;151.65;60.95;;;;;;;;;;5134050;27;20026;-79
2022/01/20 13:54:42;;;;;;;161.27;64.70;;;;;;;;;;5133800;27;20027;-82
2022/01/20 13:57:09;;;;;;;137.40;58.10;;;;;;;;;;5133679;27;20055;-82
2022/01/20 13:59:58;;;;;;;163.75;64.35;;;;;;;;;;5132975;28;20031;-83
2022/01/20 14:02:25;;;;;;;234.68;96.25;;;;;;;;;;5133041;28;20038;-83
2022/01/20 14:04:59;;;;;;;170.32;80.80;;;;;;;;;;5134024;27;20024;-82
2022/01/20 14:07:26;;;;;;;166.38;87.57;;;;;;;;;;5134361;27;20020;-81
2022/01/20 14:09:55;;;;;;;336.40;166.20;;;;;;;;;;5134161;27;20027;-82
2022/01/20 14:12:23;;;;;;;379.40;183.00;;;;;;;;;;5132471;28;20019;-81
2022/01/20 14:14:50;;;;;;;245.88;125.63;;;;;;;;;;5132623;28;20023;-81
2022/01/20 14:17:22;;;;;;;201.77;101.63;;;;;;;;;;5133976;27;20049;-82
2022/01/20 14:19:56;;;;;;;214.70;104.30;;;;;;;;;;5134438;28;20118;-83
2022/01/20 14:22:24;;;;;;;145.77;68.88;;;;;;;;;;5134564;27;20030;-82
2022/01/20 14:24:51;;;;;;;131.50;58.35;;;;;;;;;;5133808;27;20071;-82
2022/01/20 14:27:19;;;;;;;166.70;82.70;;;;;;;;;;5132504;28;20026;-82
2022/01/20 14:29:47;;;;;;;177.50;84.72;;;;;;;;;;5133247;27;20024;-81
2022/01/20 14:32:15;;;;;;;153.60;71.28;;;;;;;;;;5132289;28;20020;-82
2022/01/20 14:34:43;;;;;;;180.95;86.88;;;;;;;;;;5132533;28;20051;-83
2022/01/20 14:37:11;;;;;;;169.15;74.95;;;;;;;;;;5121202;27;20442;-81
2022/01/20 14:39:39;;;;;;;293.38;130.88;;;;;;;;;;5119009;28;20031;-82
2022/01/20 14:42:07;;;;;;;185.82;85.45;;;;;;;;;;5118507;28;20019;-81
2022/01/20 14:44:36;;;;;;;201.98;89.72;;;;;;;;;;5118208;28;20028;-82
2022/01/20 14:47:04;;;;;;;184.55;82.63;;;;;;;;;;5119610;28;20015;-82
2022/01/20 14:49:32;;;;;;;192.40;86.30;;;;;;;;;;5118251;28;20420;-82
2022/01/20 14:52:00;;;;;;;183.75;78.95;;;;;;;;;;5118049;28;20028;-82
2022/01/20 14:54:28;;;;;;;188.15;79.93;;;;;;;;;;5119330;28;20069;-82
2022/01/20 14:56:56;;;;;;;192.52;81.45;;;;;;;;;;5119217;28;20057;-82
2022/01/20 14:59:24;;;;;;;201.25;79.03;;;;;;;;;;5119039;28;20024;-81
2022/01/20 15:01:52;;;;;;;217.52;87.97;;;;;;;;;;5118065;28;20324;-81
2022/01/20 15:04:19;;;;;;;241.93;95.93;;;;;;;;;;5117646;28;20085;-82
2022/01/20 15:06:50;;;;;;;203.80;84.38;;;;;;;;;;5117718;28;20050;-81
2022/01/20 15:09:17;;;;;;;196.07;79.75;;;;;;;;;;5117672;28;20016;-82
2022/01/20 15:11:45;;;;;;;200.25;81.32;;;;;;;;;;5118171;28;20111;-80
2022/01/20 15:14:13;;;;;;;210.45;83.13;;;;;;;;;;5119671;28;20090;-80
2022/01/20 15:16:40;;;;;;;202.52;82.32;;;;;;;;;;5118353;28;20487;-78
2022/01/20 15:19:09;;;;;;;179.13;73.55;;;;;;;;;;5119357;27;20062;-82
2022/01/20 15:21:37;;;;;;;182.77;74.97;;;;;;;;;;5119334;28;20016;-82
2022/01/20 15:24:04;;;;;;;190.02;78.88;;;;;;;;;;5119015;28;20080;-81
2022/01/20 15:26:30;;;;;;;177.38;72.95;;;;;;;;;;5118019;28;20016;-81
2022/01/20 15:28:58;;;;;;;163.85;69.13;;;;;;;;;;5119126;28;20023;-81
2022/01/20 15:31:28;;;;;;;174.02;72.07;;;;;;;;;;5119288;28;20034;-80